Time;durP1;ratioP1;P1;durP2;ratioP2;P2;SDS_P1;SDS_P2;PMS_P1;PMS_P2;Temp;Humidity;BMP_temperature;BMP_pressure;BME280_temperature;BME280_humidity;BME280_pressure;Samples;Min_cycle;Max_cycle;Signal;HPM_P1;HPM_P2
2021/11/17 02:26:33;;;;;;;;;;;;;;;-2.61;83.78;98100.55;108002;1272;67635;-71
2021/11/17 02:29:06;;;;;;;;;;;;;;;-2.66;85.20;98096.16;107998;1272;69417;-70
2021/11/17 02:31:42;;;;;;;;;;;;;;;-2.71;85.96;98093.81;108042;1272;59693;-72
2021/11/17 02:34:26;;;;;;;;;;;;;;;-2.75;84.61;98092.32;108116;1272;59703;-71
2021/11/17 02:36:59;;;;;;;;;;;;;;;-2.79;84.35;98089.80;108035;1270;70791;-73
2021/11/17 02:39:47;;;;;;;;;;;;;;;-2.83;84.10;98092.21;108086;1271;68684;-73
2021/11/17 02:42:22;;;;;;;;;;;;;;;-2.89;85.25;98090.38;108073;1272;68658;-74
2021/11/17 02:44:59;;;;;;;;;;;;;;;-2.92;84.67;98090.58;108026;1271;59776;-69
2021/11/17 02:47:50;;;;;;;;;;;;;;;-2.94;83.86;98086.69;108088;1271;59763;-70
2021/11/17 02:50:35;;;;;;;;;;;;;;;-2.97;83.37;98084.66;107889;1275;70581;-68
2021/11/17 02:53:14;;;;;;;;;;;;;;;-3.01;84.64;98084.86;108113;1272;68864;-67
2021/11/17 02:55:46;;;;;;;;;;;;;;;-3.05;85.27;98083.53;108007;1271;68644;-70
2021/11/17 02:58:38;;;;;;;;;;;;;;;-3.09;84.56;98080.32;108019;1275;59754;-68
2021/11/17 03:01:19;;;;;;;;;;;;;;;-3.14;84.13;98076.77;108025;1272;59796;-72
2021/11/17 03:03:58;;;;;;;;;;;;;;;-3.16;84.24;98078.48;108058;1272;70758;-71
2021/11/17 03:06:47;;;;;;;;;;;;;;;-3.17;83.52;98073.73;108082;1272;67805;-72
2021/11/17 03:09:16;;;;;;;;;;;;;;;-3.17;82.59;98080.04;108029;1271;68658;-72
2021/11/17 03:11:55;;;;;;;;;;;;;;;-3.19;83.12;98076.66;108024;1271;59693;-72
2021/11/17 03:14:29;;;;;;;;;;;;;;;-3.18;83.88;98072.73;107991;1274;59759;-72
2021/11/17 03:17:01;;;;;;;;;;;;;;;-3.18;85.88;98072.55;107989;1272;71529;-72
2021/11/17 03:19:40;;;;;;;;;;;;;;;-3.18;83.86;98070.84;108038;1272;68485;-71
2021/11/17 03:22:28;;;;;;;;;;;;;;;-3.18;83.50;98068.80;108030;1271;68702;-72
2021/11/17 03:25:07;;;;;;;;;;;;;;;-3.20;83.42;98073.75;107998;1275;59778;-69
2021/11/17 03:27:37;;;;;;;;;;;;;;;-3.23;83.98;98071.73;107971;1275;59755;-72
2021/11/17 03:30:24;;;;;;;;;;;;;;;-3.26;83.71;98070.56;108037;1272;71347;-69
2021/11/17 03:33:00;;;;;;;;;;;;;;;-3.32;84.58;98072.48;107956;1274;67911;-70
2021/11/17 03:35:43;;;;;;;;;;;;;;;-3.36;83.12;98073.70;107916;1275;70538;-68
2021/11/17 03:38:25;;;;;;;;;;;;;;;-3.39;84.04;98072.52;107918;1274;59770;-69
2021/11/17 03:41:06;;;;;;;;;;;;;;;-3.42;86.01;98076.64;108029;1272;59708;-69
2021/11/17 03:43:43;;;;;;;;;;;;;;;-3.45;86.33;98079.55;108063;1272;70759;-70
2021/11/17 03:46:21;;;;;;;;;;;;;;;-3.47;85.62;98073.95;108068;1272;68595;-73
2021/11/17 03:48:58;;;;;;;;;;;;;;;-3.51;85.08;98069.71;108039;1272;68647;-72
2021/11/17 03:51:27;;;;;;;;;;;;;;;-3.55;83.92;98070.06;108065;1272;59787;-71
2021/11/17 03:53:57;;;;;;;;;;;;;;;-3.59;83.27;98068.73;108052;1271;59687;-70
2021/11/17 03:56:46;;;;;;;;;;;;;;;-3.63;83.65;98062.96;108052;1272;71600;-72
2021/11/17 03:59:17;;;;;;;;;;;;;;;-3.63;83.23;98066.71;107983;1271;67916;-72
2021/11/17 04:02:02;;;;;;;;;;;;;;;-3.64;82.61;98063.31;108042;1272;68667;-72
2021/11/17 04:04:40;;;;;;;;;;;;;;;-3.68;82.75;98059.77;108070;1271;59742;-73
2021/11/17 04:07:21;;;;;;;;;;;;;;;-3.71;82.85;98052.11;108119;1272;59732;-69
2021/11/17 04:10:19;;;;;;;;;;;;;;;-3.73;83.14;98058.60;107976;1271;71592;-69
2021/11/17 04:13:08;;;;;;;;;;;;;;;-3.74;83.84;98055.38;107886;1275;68687;-71
2021/11/17 04:15:52;;;;;;;;;;;;;;;-3.75;84.07;98053.66;108009;1275;68258;-69
2021/11/17 04:18:24;;;;;;;;;;;;;;;-3.77;84.10;98058.45;107995;1272;59801;-70
2021/11/17 04:20:56;;;;;;;;;;;;;;;-3.78;83.13;98056.25;107944;1277;59740;-69
2021/11/17 04:23:29;;;;;;;;;;;;;;;-3.80;83.87;98054.72;108087;1270;71010;-72
2021/11/17 04:26:10;;;;;;;;;;;;;;;-3.82;83.34;98054.73;108052;1275;68645;-71
2021/11/17 04:29:08;;;;;;;;;;;;;;;-3.83;82.63;98048.95;108037;1272;69392;-71
2021/11/17 04:31:40;;;;;;;;;;;;;;;-3.86;83.19;98053.38;108035;1271;59719;-72
2021/11/17 04:34:17;;;;;;;;;;;;;;;-3.88;82.28;98055.95;108035;1272;59716;-72
2021/11/17 04:36:51;;;;;;;;;;;;;;;-3.91;82.84;98058.86;108055;1272;70809;-69
2021/11/17 04:39:21;;;;;;;;;;;;;;;-3.93;83.19;98063.30;108061;1271;68427;-70
2021/11/17 04:42:01;;;;;;;;;;;;;;;-3.95;84.32;98059.39;108110;1271;69465;-69
2021/11/17 04:44:38;;;;;;;;;;;;;;;-3.96;83.79;98060.59;108021;1272;59706;-70
2021/11/17 04:47:10;;;;;;;;;;;;;;;-3.98;83.65;98060.94;108049;1275;59761;-71
2021/11/17 04:49:58;;;;;;;;;;;;;;;-3.99;84.70;98059.92;108062;1272;71643;-73
2021/11/17 04:52:33;;;;;;;;;;;;;;;-4.01;84.39;98054.65;108044;1271;68676;-69
2021/11/17 04:55:21;;;;;;;;;;;;;;;-4.01;86.53;98053.30;108116;1272;69506;-74
2021/11/17 04:58:16;;;;;;;;;;;;;;;-4.01;86.36;98054.31;107510;1272;631513;-67
2021/11/17 05:00:45;;;;;;;;;;;;;;;-4.02;87.63;98054.15;108092;1272;59696;-69
2021/11/17 05:03:24;;;;;;;;;;;;;;;-4.05;86.79;98052.64;108138;1272;71891;-71
2021/11/17 05:06:02;;;;;;;;;;;;;;;-4.10;85.83;98053.67;108054;1272;67886;-73
2021/11/17 05:08:40;;;;;;;;;;;;;;;-4.12;85.17;98052.98;108082;1272;69880;-72
2021/11/17 05:11:21;;;;;;;;;;;;;;;-4.14;84.66;98054.20;108068;1271;59706;-68
2021/11/17 05:13:52;;;;;;;;;;;;;;;-4.16;83.96;98053.88;108050;1272;59718;-73
2021/11/17 05:16:28;;;;;;;;;;;;;;;-4.17;83.56;98057.10;108006;1272;71666;-72
2021/11/17 05:18:58;;;;;;;;;;;;;;;-4.18;83.21;98054.73;108035;1276;67259;-69
2021/11/17 05:21:33;;;;;;;;;;;;;;;-4.19;83.07;98049.13;108101;1272;69200;-70
2021/11/17 05:24:22;;;;;;;;;;;;;;;-4.20;82.70;98050.48;108100;1271;59693;-67
2021/11/17 05:26:56;;;;;;;;;;;;;;;-4.19;83.32;98049.30;108028;1272;59649;-68
2021/11/17 05:29:25;;;;;;;;;;;;;;;-4.16;81.89;98052.51;108106;1271;71595;-67
2021/11/17 05:31:54;;;;;;;;;;;;;;;-4.15;82.42;98054.55;108027;1272;67874;-67
2021/11/17 05:34:38;;;;;;;;;;;;;;;-4.15;82.17;98055.40;108040;1272;68790;-72
2021/11/17 05:37:11;;;;;;;;;;;;;;;-4.15;81.73;98052.68;108052;1272;59848;-69
2021/11/17 05:39:40;;;;;;;;;;;;;;;-4.17;84.40;98056.59;108131;1271;59756;-68
2021/11/17 05:42:09;;;;;;;;;;;;;;;-4.17;83.77;98065.10;108048;1272;70765;-72
2021/11/17 05:44:53;;;;;;;;;;;;;;;-4.16;82.36;98070.23;108077;1272;68405;-67
2021/11/17 05:47:44;;;;;;;;;;;;;;;-4.13;82.49;98065.95;108100;1271;68480;-69
2021/11/17 05:50:19;;;;;;;;;;;;;;;-4.14;85.01;98063.73;108095;1272;59696;-70
2021/11/17 05:53:03;;;;;;;;;;;;;;;-4.12;83.97;98065.42;108108;1271;59762;-70
2021/11/17 05:55:44;;;;;;;;;;;;;;;-4.10;83.41;98065.25;108063;1274;70795;-68
2021/11/17 06:12:40;;;;;;;30.00;20.10;;;;;;;-3.27;82.87;98065.79;104502;1310;610458;-66
2021/11/17 06:15:13;;;;;;;28.00;16.00;;;;;;;-3.01;82.69;98067.46;107134;1283;263371;-66
2021/11/17 06:17:50;;;;;;;30.60;16.90;;;;;;;-2.91;82.29;98068.23;107875;1278;57598;-67
2021/11/17 06:20:20;;;;;;;23.30;16.00;;;;;;;-2.82;81.68;98071.05;107856;1276;67796;-67
2021/11/17 06:22:53;;;;;;;42.60;26.40;;;;;;;-2.76;81.55;98067.77;107684;1278;67766;-66
2021/11/17 06:25:23;;;;;;;46.70;28.80;;;;;;;-2.75;81.23;98064.67;107700;1278;69441;-68
2021/11/17 06:27:53;;;;;;;;;;;;;;;-2.70;81.03;98062.06;107722;1278;57600;-68
2021/11/17 06:30:23;;;;;;;;;;;;;;;-2.62;81.01;98062.34;107973;1275;57959;-67
2021/11/17 06:32:57;;;;;;;29.30;16.70;;;;;;;-2.51;81.30;98064.95;107910;1275;68218;-67
2021/11/17 06:35:26;;;;;;;29.10;16.60;;;;;;;-2.39;81.37;98069.77;107909;1275;67840;-67
2021/11/17 06:37:56;;;;;;;40.10;24.80;;;;;;;-2.25;80.96;98068.77;107700;1278;69738;-67
2021/11/17 06:40:25;;;;;;;45.50;26.00;;;;;;;-2.06;80.90;98065.30;107859;1275;58202;-68
2021/11/17 06:42:57;;;;;;;50.10;27.50;;;;;;;-1.55;80.22;98058.98;107998;1275;58500;-67
2021/11/17 06:45:32;;;;;;;51.30;29.90;;;;;;;-0.77;78.86;98059.81;108035;1275;69894;-67
2021/11/17 06:48:01;;;;;;;37.80;23.00;;;;;;;0.12;76.38;98061.21;107986;1275;67823;-68
2021/11/17 06:50:31;;;;;;;56.00;36.30;;;;;;;1.00;74.04;98062.16;107835;1275;68387;-68
2021/11/17 06:53:00;;;;;;;65.70;40.40;;;;;;;1.83;73.60;98063.09;107959;1275;58094;-67
2021/11/17 06:55:29;;;;;;;32.40;21.50;;;;;;;2.57;71.51;98058.40;107811;1275;58141;-67
2021/11/17 06:57:58;;;;;;;69.40;37.50;;;;;;;3.32;71.13;98062.20;107989;1275;70800;-67
2021/11/17 07:00:31;;;;;;;87.30;55.80;;;;;;;4.05;69.55;98058.29;107848;1275;68869;-67
2021/11/17 07:03:00;;;;;;;83.30;53.60;;;;;;;4.73;65.44;98057.44;107794;1275;69324;-67
2021/11/17 07:05:30;;;;;;;49.00;32.80;;;;;;;5.40;65.05;98060.11;108027;1275;58115;-68
2021/11/17 07:08:01;;;;;;;77.20;50.40;;;;;;;6.05;61.84;98055.09;108017;1275;58046;-67
2021/11/17 07:10:32;;;;;;;74.30;48.80;;;;;;;6.67;60.88;98054.86;107892;1275;70093;-67
2021/11/17 07:13:02;;;;;;;97.40;65.60;;;;;;;7.17;59.59;98056.27;108062;1275;68475;-67
2021/11/17 07:15:34;;;;;;;93.40;61.70;;;;;;;7.58;56.45;98053.36;107962;1275;68948;-67
2021/11/17 07:18:04;;;;;;;98.10;50.50;;;;;;;8.05;53.62;98057.02;107826;1275;58113;-67
2021/11/17 07:20:35;;;;;;;87.20;58.80;;;;;;;8.35;51.55;98060.52;108056;1275;58068;-67
2021/11/17 07:23:07;;;;;;;70.00;50.30;;;;;;;8.78;51.93;98058.90;108018;1275;69194;-67
2021/11/17 07:25:36;;;;;;;84.70;58.00;;;;;;;9.12;49.56;98060.98;107826;1275;68570;-68
2021/11/17 07:28:06;;;;;;;75.80;53.80;;;;;;;9.23;48.25;98063.30;107990;1275;69396;-68
2021/11/17 07:30:39;;;;;;;73.20;49.90;;;;;;;9.07;48.34;98058.80;107868;1275;58097;-68
2021/11/17 07:33:09;;;;;;;75.90;48.80;;;;;;;9.34;48.14;98061.44;107890;1275;58144;-68
2021/11/17 07:35:40;;;;;;;63.80;42.40;;;;;;;9.70;46.90;98059.90;107993;1275;70541;-68
2021/11/17 07:38:12;;;;;;;61.80;41.80;;;;;;;10.25;47.38;98057.46;107911;1275;67872;-69
2021/11/17 07:40:44;;;;;;;59.50;40.80;;;;;;;10.73;45.03;98059.56;107972;1275;69357;-68
2021/11/17 07:43:15;;;;;;;49.80;35.60;;;;;;;10.77;44.34;98060.73;107961;1275;58224;-68
2021/11/17 07:45:45;;;;;;;52.40;38.00;;;;;;;10.90;44.95;98056.39;107951;1275;58109;-68
2021/11/17 07:48:16;;;;;;;49.50;34.00;;;;;;;11.27;44.21;98051.89;107853;1275;70914;-68
2021/11/17 07:50:46;;;;;;;45.70;33.20;;;;;;;11.82;43.75;98054.34;107986;1275;67813;-68
2021/11/17 07:53:20;;;;;;;48.70;33.80;;;;;;;12.38;43.00;98052.76;108051;1275;69341;-67
2021/11/17 07:55:52;;;;;;;40.30;31.20;;;;;;;12.84;40.89;98051.64;107968;1275;58093;-68
2021/11/17 07:58:24;;;;;;;43.10;30.40;;;;;;;13.28;38.97;98059.63;107820;1275;58135;-68
2021/11/17 08:00:56;;;;;;;34.10;25.80;;;;;;;13.37;38.17;98064.58;107776;1278;69580;-68
2021/11/17 08:03:29;;;;;;;32.00;24.40;;;;;;;13.52;38.27;98066.09;107905;1275;68685;-67
2021/11/17 08:05:59;;;;;;;32.70;23.50;;;;;;;13.71;37.89;98064.86;107696;1277;69441;-67
2021/11/17 08:08:31;;;;;;;;;;;;;;;13.83;37.31;98067.30;107835;1275;58119;-69
2021/11/17 08:11:03;;;;;;;33.10;22.90;;;;;;;13.90;37.23;98065.86;107737;1277;58178;-65
2021/11/17 08:13:33;;;;;;;30.50;19.80;;;;;;;14.16;36.89;98067.94;107964;1275;69952;-67
2021/11/17 08:16:04;;;;;;;32.80;22.60;;;;;;;14.28;37.08;98071.72;107844;1275;69076;-66
2021/11/17 08:18:34;;;;;;;27.70;20.30;;;;;;;14.75;36.17;98066.50;107966;1275;68680;-67
2021/11/17 08:21:03;;;;;;;19.40;13.60;;;;;;;15.14;35.68;98068.47;107783;1275;58159;-66
2021/11/17 08:23:32;;;;;;;18.70;13.50;;;;;;;15.87;34.84;98074.23;107823;1275;58095;-67
2021/11/17 08:26:03;;;;;;;23.30;15.40;;;;;;;16.38;34.20;98069.70;107839;1275;70752;-66
2021/11/17 08:28:32;;;;;;;20.60;14.70;;;;;;;16.75;33.31;98065.27;108030;1275;69194;-65
2021/11/17 08:31:01;;;;;;;18.20;12.60;;;;;;;17.22;33.69;98066.58;107943;1275;68853;-66
2021/11/17 08:33:30;;;;;;;14.20;11.40;;;;;;;17.77;31.73;98068.36;108015;1275;58183;-65
2021/11/17 08:36:02;;;;;;;19.10;14.60;;;;;;;18.12;30.57;98075.30;107999;1275;58125;-65
2021/11/17 08:38:32;;;;;;;16.80;12.20;;;;;;;18.36;30.50;98074.15;107847;1275;69781;-65
2021/11/17 08:41:09;;;;;;;20.00;14.00;;;;;;;18.57;29.64;98064.77;108058;1275;69185;-66
2021/11/17 08:43:41;;;;;;;17.10;14.30;;;;;;;18.69;28.91;98063.08;107978;1276;69420;-64
2021/11/17 08:46:11;;;;;;;18.90;14.40;;;;;;;18.62;28.12;98061.10;107934;1274;58131;-64
2021/11/17 08:48:41;;;;;;;19.30;15.50;;;;;;;18.16;28.25;98060.45;107818;1275;58505;-65
2021/11/17 08:51:16;;;;;;;18.50;15.10;;;;;;;17.15;29.10;98058.42;107714;1278;70059;-65
2021/11/17 08:53:47;;;;;;;13.50;10.30;;;;;;;16.91;30.64;98060.90;107703;1276;68170;-65
2021/11/17 08:56:16;;;;;;;19.50;14.70;;;;;;;17.58;29.97;98060.89;107927;1275;68731;-65
2021/11/17 08:58:46;;;;;;;15.60;12.80;;;;;;;17.56;29.58;98056.98;107920;1275;58127;-66
2021/11/17 09:01:15;;;;;;;17.90;14.80;;;;;;;17.97;28.63;98051.86;107937;1275;58548;-65
2021/11/17 09:03:44;;;;;;;18.00;14.30;;;;;;;17.85;29.18;98048.52;107994;1275;69417;-67
2021/11/17 09:06:14;;;;;;;20.10;15.00;;;;;;;17.97;28.42;98050.22;107820;1275;68495;-67
2021/11/17 09:08:43;;;;;;;16.50;13.60;;;;;;;17.88;28.76;98047.93;107864;1275;69436;-65
2021/11/17 09:11:16;;;;;;;18.40;14.40;;;;;;;18.01;28.17;98055.86;107938;1275;58161;-65
2021/11/17 09:13:46;;;;;;;19.40;15.40;;;;;;;17.53;28.16;98059.87;107861;1275;58103;-66
2021/11/17 09:16:15;;;;;;;14.90;11.70;;;;;;;17.03;29.75;98060.16;107851;1275;70697;-66
2021/11/17 09:18:44;;;;;;;17.50;14.60;;;;;;;17.62;29.27;98058.19;107794;1275;68257;-66
2021/11/17 09:21:17;;;;;;;17.50;15.00;;;;;;;17.73;28.45;98054.54;107766;1275;70209;-66
2021/11/17 09:23:46;;;;;;;18.00;13.10;;;;;;;17.38;29.01;98050.55;107735;1278;58141;-66
2021/11/17 09:26:15;;;;;;;18.50;14.80;;;;;;;17.70;28.71;98047.07;107943;1275;58110;-66
2021/11/17 09:28:44;;;;;;;20.10;14.30;;;;;;;18.02;28.38;98050.82;107843;1275;70049;-66
2021/11/17 09:31:13;;;;;;;20.50;15.20;;;;;;;18.70;28.00;98043.34;107948;1275;68571;-66
2021/11/17 09:33:46;;;;;;;18.80;13.60;;;;;;;18.72;26.85;98041.05;107749;1275;70177;-66
2021/11/17 09:36:18;;;;;;;19.80;15.70;;;;;;;18.47;27.15;98037.79;107898;1275;58104;-66
2021/11/17 09:38:50;;;;;;;14.40;11.30;;;;;;;18.29;26.74;98036.51;107837;1275;58149;-65
2021/11/17 09:41:41;;;;;;;16.30;13.50;;;;;;;18.21;26.83;98037.40;107950;1275;68502;-66
2021/11/17 09:44:17;;;;;;;18.10;14.60;;;;;;;18.00;27.97;98036.54;107939;1275;68774;-66
2021/11/17 09:46:48;;;;;;;18.40;14.10;;;;;;;18.33;27.14;98030.86;107730;1278;69520;-65
2021/11/17 09:49:37;;;;;;;20.40;15.90;;;;;;;18.54;27.10;98029.66;107803;1275;58103;-66
2021/11/17 09:52:13;;;;;;;18.90;14.80;;;;;;;18.73;26.65;98026.33;107919;1275;58583;-66
2021/11/17 09:54:54;;;;;;;19.50;14.80;;;;;;;18.53;26.63;98022.93;107977;1275;70500;-66
2021/11/17 09:57:30;;;;;;;22.90;17.00;;;;;;;18.46;27.12;98019.20;107926;1275;68658;-65
2021/11/17 10:00:10;;;;;;;23.00;18.60;;;;;;;18.48;27.34;98014.79;107854;1276;70106;-68
2021/11/17 10:02:51;;;;;;;21.80;17.20;;;;;;;18.52;26.53;98008.20;107740;1275;58176;-66
2021/11/17 10:05:23;;;;;;;24.70;19.00;;;;;;;17.82;27.22;98010.04;107836;1275;58179;-67
2021/11/17 10:14:30;;;;;;;20.80;15.30;;;;;;;16.38;29.27;98007.13;107811;1275;68266;-66
2021/11/17 10:17:00;;;;;;;27.40;21.50;;;;;;;16.03;30.46;98008.94;107749;1275;58196;-67
2021/11/17 10:19:34;;;;;;;27.00;20.80;;;;;;;16.07;30.53;98007.15;107916;1275;58164;-67
2021/11/17 10:22:13;;;;;;;25.80;19.70;;;;;;;15.88;30.57;97999.45;107994;1276;69033;-67
2021/11/17 10:24:50;;;;;;;31.80;25.40;;;;;;;15.65;31.09;97997.70;107785;1275;68595;-69
2021/11/17 10:27:29;;;;;;;29.90;23.30;;;;;;;15.63;31.49;97995.23;107915;1275;69566;-66
2021/11/17 10:30:19;;;;;;;25.50;18.60;;;;;;;16.07;30.89;97993.41;107974;1275;58958;-66
2021/11/17 10:33:04;;;;;;;26.80;19.90;;;;;;;16.61;30.09;97987.89;107875;1275;58934;-66
2021/11/17 10:35:39;;;;;;;27.30;20.50;;;;;;;17.01;29.39;97988.20;107798;1278;70920;-67
2021/11/17 10:38:17;;;;;;;26.40;19.70;;;;;;;16.83;29.49;97983.80;107849;1275;68599;-68
2021/11/17 10:40:54;;;;;;;27.00;20.50;;;;;;;17.07;29.13;97984.46;107712;1275;68743;-66
2021/11/17 10:43:33;;;;;;;26.50;19.30;;;;;;;16.98;29.11;97984.59;107846;1274;58960;-68
2021/11/17 10:46:12;;;;;;;22.50;17.30;;;;;;;16.41;29.55;97976.41;107884;1277;58872;-68
2021/11/17 10:48:55;;;;;;;25.10;17.10;;;;;;;16.14;30.29;97979.82;107862;1275;70953;-66
2021/11/17 10:51:34;;;;;;;22.40;16.90;;;;;;;16.61;29.67;97976.20;107854;1275;67092;-66
2021/11/17 10:54:11;;;;;;;27.20;20.20;;;;;;;16.79;29.62;97978.71;107679;1276;69557;-66
2021/11/17 10:56:41;;;;;;;28.00;19.60;;;;;;;16.87;29.37;97982.27;107929;1270;58977;-66
2021/11/17 10:59:10;;;;;;;21.20;15.40;;;;;;;16.86;29.23;97980.05;107853;1275;58952;-66
2021/11/17 11:01:44;;;;;;;25.80;19.50;;;;;;;17.22;28.67;97978.91;107659;1275;70885;-68
2021/11/17 11:04:22;;;;;;;22.90;17.50;;;;;;;17.42;28.51;97973.55;107803;1275;68613;-66
2021/11/17 11:06:57;;;;;;;29.40;21.20;;;;;;;17.36;28.45;97965.83;107648;1275;69647;-66
2021/11/17 11:09:29;;;;;;;25.90;20.10;;;;;;;17.55;28.31;97962.13;107807;1274;58985;-66
2021/11/17 11:12:00;;;;;;;25.90;19.50;;;;;;;17.49;28.44;97960.94;107855;1274;58944;-66
2021/11/17 11:14:37;;;;;;;26.80;21.60;;;;;;;17.58;28.47;97961.31;107877;1275;71293;-67
2021/11/17 11:17:22;;;;;;;23.60;19.40;;;;;;;17.83;28.43;97960.05;107968;1275;68673;-66
2021/11/17 11:20:12;;;;;;;25.40;18.90;;;;;;;18.43;27.49;97949.45;107660;1275;70113;-66
2021/11/17 11:23:02;;;;;;;23.30;18.90;;;;;;;18.58;27.27;97947.27;107833;1275;58967;-66
2021/11/17 11:25:57;;;;;;;25.00;18.90;;;;;;;18.24;26.82;97945.93;107866;1275;58910;-66
2021/11/17 11:29:02;;;;;;;19.50;15.30;;;;;;;17.50;27.56;97945.09;107854;1275;70434;-66
2021/11/17 11:31:36;;;;;;;24.60;18.60;;;;;;;17.17;28.19;97939.16;107367;1284;68717;-67
2021/11/17 11:34:05;;;;;;;26.20;19.70;;;;;;;16.75;28.84;97934.49;107778;1275;68969;-67
2021/11/17 11:36:46;;;;;;;23.80;18.70;;;;;;;16.38;29.69;97927.64;107840;1275;58851;-66
2021/11/17 11:39:17;;;;;;;25.30;18.90;;;;;;;16.93;29.64;97928.27;107953;1277;58906;-67
2021/11/17 11:42:14;;;;;;;21.10;16.10;;;;;;;17.53;28.56;97922.95;107877;1275;71325;-66
2021/11/17 11:44:57;;;;;;;20.50;16.80;;;;;;;17.59;27.86;97924.19;107858;1275;68658;-66
2021/11/17 11:47:40;;;;;;;28.80;20.80;;;;;;;16.95;28.60;97919.02;107865;1275;69417;-66
2021/11/17 11:50:38;;;;;;;25.00;19.50;;;;;;;16.62;29.10;97918.95;107797;1274;58892;-66
2021/11/17 11:53:49;;;;;;;24.70;19.20;;;;;;;16.32;30.06;97914.44;107875;1275;58877;-67
2021/11/17 11:56:43;;;;;;;24.40;16.20;;;;;;;16.62;29.67;97914.70;107652;1275;69953;-67
2021/11/17 11:59:37;;;;;;;22.10;17.30;;;;;;;17.17;29.46;97914.85;107897;1275;68569;-66
2021/11/17 12:02:10;;;;;;;25.00;19.10;;;;;;;18.08;27.90;97907.45;107943;1275;70049;-66
2021/11/17 12:04:47;;;;;;;25.10;18.50;;;;;;;18.22;27.55;97905.71;107952;1275;58908;-66
2021/11/17 12:07:32;;;;;;;24.60;19.10;;;;;;;18.27;27.02;97903.69;107860;1275;58906;-69
2021/11/17 12:10:10;;;;;;;24.70;18.30;;;;;;;18.15;27.62;97898.61;107827;1275;70749;-66
2021/11/17 12:12:42;;;;;;;26.10;19.40;;;;;;;18.40;27.17;97896.76;107702;1278;68930;-66
2021/11/17 12:15:21;;;;;;;24.40;18.80;;;;;;;17.77;27.63;97898.17;107833;1275;69840;-67
2021/11/17 12:18:05;;;;;;;29.90;20.50;;;;;;;17.38;28.28;97900.12;107782;1274;58986;-68
2021/11/17 12:20:39;;;;;;;26.30;19.40;;;;;;;17.26;28.69;97896.07;108034;1272;58879;-67
2021/11/17 12:23:22;;;;;;;29.70;20.00;;;;;;;16.81;29.08;97888.39;108022;1275;71237;-67
2021/11/17 12:26:00;;;;;;;21.20;15.60;;;;;;;16.63;29.76;97883.48;107995;1274;67628;-66
2021/11/17 12:28:31;;;;;;;20.00;14.60;;;;;;;17.36;28.84;97879.27;108003;1275;69933;-68
2021/11/17 12:31:07;;;;;;;27.40;18.00;;;;;;;18.09;27.70;97870.52;108019;1272;58973;-67
2021/11/17 12:33:36;;;;;;;26.70;19.60;;;;;;;18.74;26.84;97876.29;108035;1274;58904;-67
2021/11/17 12:36:24;;;;;;;15.90;12.90;;;;;;;19.19;26.32;97878.23;108077;1272;71435;-68
2021/11/17 12:38:55;;;;;;;21.90;15.80;;;;;;;19.77;26.57;97873.02;108067;1272;68466;-68
2021/11/17 12:41:29;;;;;;;15.10;11.20;;;;;;;20.23;25.41;97872.95;107951;1273;69758;-68
2021/11/17 12:44:01;;;;;;;21.10;15.10;;;;;;;20.52;24.96;97875.09;107966;1275;58999;-69
2021/11/17 12:46:46;;;;;;;18.90;13.70;;;;;;;20.49;24.49;97879.10;107992;1272;58968;-68
2021/11/17 12:49:23;;;;;;;21.80;15.90;;;;;;;20.42;24.54;97883.77;108017;1272;70818;-68
2021/11/17 12:52:02;;;;;;;22.80;18.30;;;;;;;20.01;25.10;97880.04;108020;1273;68255;-68
2021/11/17 12:54:43;;;;;;;26.40;19.50;;;;;;;19.76;25.25;97878.73;107999;1276;69458;-69
2021/11/17 12:57:15;;;;;;;25.10;19.30;;;;;;;19.35;25.58;97879.55;107939;1274;58938;-68
2021/11/17 12:59:55;;;;;;;19.60;14.90;;;;;;;19.46;25.85;97881.34;108063;1272;58964;-69
2021/11/17 13:02:25;;;;;;;31.80;23.10;;;;;;;19.59;25.46;97876.33;108031;1271;70842;-69
2021/11/17 13:05:21;;;;;;;30.20;22.70;;;;;;;18.85;26.06;97871.38;108000;1272;69274;-68
2021/11/17 13:08:14;;;;;;;28.90;22.20;;;;;;;17.94;27.28;97865.53;107952;1272;68607;-67
2021/11/17 13:11:06;;;;;;;28.40;19.60;;;;;;;17.25;28.30;97864.13;108005;1276;58977;-68
2021/11/17 13:13:55;;;;;;;26.40;20.60;;;;;;;17.03;28.67;97865.44;108021;1273;58986;-68
2021/11/17 13:16:33;;;;;;;28.80;21.30;;;;;;;16.83;28.89;97864.80;108064;1272;70762;-68
2021/11/17 13:19:19;;;;;;;25.90;20.20;;;;;;;16.15;29.81;97863.52;108014;1272;67950;-67
2021/11/17 13:21:55;;;;;;;19.50;15.60;;;;;;;15.90;30.56;97865.37;108039;1272;69572;-70
2021/11/17 13:24:27;;;;;;;24.60;17.30;;;;;;;16.37;30.34;97865.09;107962;1272;58927;-69
2021/11/17 13:27:08;;;;;;;27.10;20.00;;;;;;;16.82;29.77;97865.97;108010;1271;58906;-69
2021/11/17 13:30:14;;;;;;;23.70;17.40;;;;;;;17.05;29.23;97868.08;108005;1271;71319;-66
2021/11/17 13:32:47;;;;;;;27.40;20.60;;;;;;;17.20;29.10;97860.66;108002;1275;67849;-68
2021/11/17 13:35:33;;;;;;;17.90;14.50;;;;;;;17.05;29.19;97865.44;108084;1272;69444;-68
2021/11/17 13:38:30;;;;;;;26.80;19.80;;;;;;;16.99;29.45;97865.23;108059;1272;58929;-67
2021/11/17 13:41:04;;;;;;;24.50;17.30;;;;;;;17.08;29.62;97869.72;108011;1275;58912;-68
2021/11/17 13:43:36;;;;;;;24.10;18.40;;;;;;;17.27;29.28;97863.89;108039;1275;70717;-68
2021/11/17 13:46:13;;;;;;;18.30;14.60;;;;;;;17.44;29.34;97858.99;108115;1272;68409;-68
2021/11/17 13:48:44;;;;;;;24.30;16.30;;;;;;;17.59;29.24;97863.77;108064;1274;70009;-68
2021/11/17 13:51:17;;;;;;;15.00;10.80;;;;;;;17.69;29.11;97861.74;108001;1275;58957;-68
2021/11/17 13:53:47;;;;;;;11.30;8.50;;;;;;;17.74;29.04;97861.47;107802;1272;58852;-70
2021/11/17 13:56:32;;;;;;;17.10;11.30;;;;;;;17.68;29.14;97856.55;107839;1271;70111;-70
2021/11/17 13:59:02;;;;;;;25.00;17.60;;;;;;;17.55;29.31;97858.64;107962;1273;68447;-70
2021/11/17 14:01:31;;;;;;;23.70;16.70;;;;;;;17.40;29.48;97855.71;107833;1276;70023;-68
2021/11/17 14:04:00;;;;;;;17.20;12.20;;;;;;;17.26;29.67;97853.41;107981;1271;58901;-68
2021/11/17 14:06:30;;;;;;;20.30;13.70;;;;;;;17.10;29.93;97857.98;107998;1275;58922;-68
2021/11/17 14:08:59;;;;;;;21.20;14.90;;;;;;;16.88;30.33;97859.84;108055;1272;70775;-68
2021/11/17 14:11:30;;;;;;;22.20;15.00;;;;;;;16.67;30.70;97856.38;108064;1272;68630;-68
2021/11/17 14:13:59;;;;;;;23.90;15.30;;;;;;;16.47;30.71;97857.48;107993;1272;68685;-68
2021/11/17 14:16:28;;;;;;;;;;;;;;;16.25;30.80;97858.05;107591;1275;545204;-68
2021/11/17 14:18:57;;;;;;;19.50;13.70;;;;;;;15.99;31.13;97857.70;108078;1271;58934;-67
2021/11/17 14:21:26;;;;;;;14.60;10.50;;;;;;;15.71;32.13;97850.31;107990;1272;70580;-70
2021/11/17 14:23:55;;;;;;;21.20;15.90;;;;;;;15.35;32.69;97851.43;107974;1275;69294;-68
2021/11/17 14:26:26;;;;;;;26.40;18.50;;;;;;;14.95;32.97;97852.73;107982;1272;69367;-68
2021/11/17 14:29:01;;;;;;;24.30;16.90;;;;;;;14.45;33.83;97852.77;108009;1272;59017;-70
2021/11/17 14:31:39;;;;;;;27.00;18.80;;;;;;;13.90;34.58;97851.10;108099;1274;58986;-70
2021/11/17 14:34:09;;;;;;;24.70;16.60;;;;;;;13.32;35.20;97855.27;108097;1271;69805;-70
2021/11/17 14:36:45;;;;;;;21.90;14.80;;;;;;;12.82;35.93;97857.23;108022;1272;68600;-70
2021/11/17 14:39:18;;;;;;;31.20;20.20;;;;;;;12.27;36.65;97858.38;107952;1274;69274;-70
2021/11/17 14:41:50;;;;;;;29.10;20.30;;;;;;;11.54;38.05;97852.20;108082;1275;58954;-70
2021/11/17 14:44:19;;;;;;;25.20;18.20;;;;;;;10.76;39.38;97858.00;107880;1276;58924;-70
2021/11/17 14:46:48;;;;;;;29.30;18.40;;;;;;;10.10;41.14;97860.34;107976;1275;69828;-70
2021/11/17 14:49:18;;;;;;;25.60;18.70;;;;;;;9.60;42.03;97863.29;108056;1272;68619;-70
2021/11/17 14:51:48;;;;;;;31.60;20.80;;;;;;;9.17;42.78;97866.29;107958;1275;67695;-68
2021/11/17 14:54:17;;;;;;;27.20;17.00;;;;;;;8.82;43.18;97865.38;108035;1275;58977;-68
2021/11/17 14:56:48;;;;;;;32.80;20.70;;;;;;;8.50;43.91;97865.84;108045;1272;58904;-68
2021/11/17 14:59:17;;;;;;;29.30;16.90;;;;;;;8.21;44.79;97866.59;108043;1272;71432;-68
2021/11/17 15:01:46;;;;;;;27.50;17.70;;;;;;;7.91;46.00;97864.95;107999;1272;68653;-68